Time;durP1;ratioP1;P1;durP2;ratioP2;P2;SDS_P1;SDS_P2;PMS_P1;PMS_P2;Temp;Humidity;BMP_temperature;BMP_pressure;BME280_temperature;BME280_humidity;BME280_pressure;Samples;Min_cycle;Max_cycle;Signal;HPM_P1;HPM_P2
2022/08/18 00:00:02;;;;;;;10.68;5.40;;;18.50;99.90;;;;;;3058230;19;20006;-74
2022/08/18 00:01:03;;;;;;;11.90;5.63;;;18.50;99.90;;;;;;3058332;19;20014;-74
2022/08/18 00:02:13;;;;;;;11.13;5.57;;;18.70;99.90;;;;;;3058028;19;20010;-74
2022/08/18 00:03:14;;;;;;;11.57;5.78;;;18.60;99.90;;;;;;3058090;19;20430;-75
2022/08/18 00:04:21;;;;;;;13.35;5.53;;;18.70;99.90;;;;;;3058025;19;20356;-74
2022/08/18 00:05:22;;;;;;;12.18;6.30;;;18.70;99.90;;;;;;3058473;19;20007;-75
2022/08/18 00:06:26;;;;;;;11.35;5.75;;;18.70;99.90;;;;;;3057931;19;20053;-74
2022/08/18 00:07:34;;;;;;;15.00;6.40;;;18.60;99.90;;;;;;3058156;19;20007;-74
2022/08/18 00:08:35;;;;;;;14.55;5.90;;;18.50;99.90;;;;;;3058176;19;20039;-75
2022/08/18 00:09:41;;;;;;;13.27;5.50;;;18.70;99.90;;;;;;3058238;19;20039;-74
2022/08/18 00:10:42;;;;;;;11.30;5.90;;;18.70;99.90;;;;;;3057839;19;20033;-74
2022/08/18 00:11:53;;;;;;;16.63;5.97;;;18.70;99.90;;;;;;3058324;19;20078;-74
2022/08/18 00:12:54;;;;;;;13.00;5.95;;;18.40;99.90;;;;;;3057935;19;20010;-74
2022/08/18 00:13:58;;;;;;;15.20;6.80;;;18.70;99.90;;;;;;3056813;19;20044;-75
2022/08/18 00:15:04;;;;;;;15.63;5.97;;;18.70;99.90;;;;;;3058636;19;20007;-75
2022/08/18 00:16:06;;;;;;;11.20;6.28;;;18.60;99.90;;;;;;3059117;19;20440;-74
2022/08/18 00:17:10;;;;;;;11.93;6.10;;;18.60;99.90;;;;;;3059180;19;20028;-75
2022/08/18 00:18:11;;;;;;;11.57;6.10;;;18.50;99.90;;;;;;3059978;19;20472;-74
2022/08/18 00:19:15;;;;;;;15.27;6.18;;;18.50;99.90;;;;;;3059593;19;20379;-74
2022/08/18 00:20:21;;;;;;;10.07;5.82;;;18.60;99.90;;;;;;3060263;19;19999;-74
2022/08/18 00:21:25;;;;;;;17.08;7.03;;;18.70;99.90;;;;;;3059918;19;20014;-75
2022/08/18 00:22:26;;;;;;;13.45;6.72;;;18.40;99.90;;;;;;3060197;19;20002;-74
2022/08/18 00:23:31;;;;;;;12.95;6.78;;;18.60;99.90;;;;;;3059783;19;20476;-74
2022/08/18 00:24:33;;;;;;;15.73;6.72;;;18.60;99.90;;;;;;3060113;19;20006;-74
2022/08/18 00:25:36;;;;;;;12.73;6.95;;;18.60;99.90;;;;;;3059857;19;20372;-74
2022/08/18 00:26:38;;;;;;;16.00;7.38;;;18.50;99.90;;;;;;3060103;19;20029;-74
2022/08/18 00:27:42;;;;;;;14.98;6.75;;;18.40;99.90;;;;;;3058967;19;20007;-75
2022/08/18 00:28:44;;;;;;;17.52;7.20;;;18.60;99.90;;;;;;3060027;19;20412;-74
2022/08/18 00:29:48;;;;;;;14.32;7.10;;;18.50;99.90;;;;;;3059800;19;20017;-74
2022/08/18 00:30:50;;;;;;;16.00;7.25;;;18.60;99.90;;;;;;3059932;19;20028;-75
2022/08/18 00:31:54;;;;;;;16.65;6.65;;;18.40;99.90;;;;;;3059046;19;20010;-75
2022/08/18 00:32:58;;;;;;;13.55;6.68;;;18.60;99.90;;;;;;3059113;19;20492;-74
2022/08/18 00:34:02;;;;;;;17.55;6.93;;;18.60;99.90;;;;;;3059718;19;20027;-75
2022/08/18 00:35:12;;;;;;;13.30;6.75;;;18.40;99.90;;;;;;3060143;19;20003;-75
2022/08/18 00:36:18;;;;;;;15.00;7.10;;;18.60;99.90;;;;;;3060053;19;20077;-75
2022/08/18 00:37:21;;;;;;;19.05;7.75;;;18.40;99.90;;;;;;3060138;19;20018;-76
2022/08/18 00:38:25;;;;;;;14.32;6.72;;;18.40;99.90;;;;;;3059808;19;20010;-75
2022/08/18 00:39:29;;;;;;;14.60;6.80;;;18.50;99.90;;;;;;3059769;19;20016;-75
2022/08/18 00:40:37;;;;;;;18.80;7.28;;;18.50;99.90;;;;;;3059735;19;20011;-74
2022/08/18 00:41:38;;;;;;;15.15;6.85;;;18.40;99.90;;;;;;3059796;19;20022;-74
2022/08/18 00:42:46;;;;;;;14.95;7.75;;;18.40;99.90;;;;;;3059683;19;20010;-74
2022/08/18 00:43:50;;;;;;;16.83;6.90;;;18.40;99.90;;;;;;3059567;19;20483;-74
2022/08/18 00:44:55;;;;;;;15.85;7.35;;;18.30;99.90;;;;;;3059774;19;20029;-74
2022/08/18 00:45:57;;;;;;;14.93;7.07;;;18.30;99.90;;;;;;3059522;19;20092;-74
2022/08/18 00:47:00;;;;;;;;;;;18.40;99.90;;;;;;3060322;19;20464;-73
2022/08/18 00:48:02;;;;;;;18.27;6.72;;;18.40;99.90;;;;;;3059189;19;19926;-74
2022/08/18 00:49:07;;;;;;;13.10;6.80;;;18.30;99.90;;;;;;3059233;19;20031;-75
2022/08/18 00:50:11;;;;;;;12.80;6.63;;;18.40;99.90;;;;;;3059431;19;20011;-74
2022/08/18 00:51:24;;;;;;;16.15;6.82;;;18.40;99.90;;;;;;3059580;19;20011;-74
2022/08/18 00:52:25;;;;;;;16.77;6.93;;;18.40;99.90;;;;;;3059429;19;20018;-74
2022/08/18 00:53:34;;;;;;;12.70;7.18;;;18.40;99.90;;;;;;3059758;19;20010;-74
2022/08/18 00:54:40;;;;;;;17.80;7.30;;;18.20;99.90;;;;;;3059328;19;20010;-75
2022/08/18 00:55:47;;;;;;;16.45;6.78;;;18.20;99.90;;;;;;3059739;19;20082;-74
2022/08/18 00:56:51;;;;;;;11.57;6.82;;;18.20;99.90;;;;;;3059528;19;20011;-75
2022/08/18 00:58:01;;;;;;;12.93;6.90;;;18.20;99.90;;;;;;3059675;19;20014;-75
2022/08/18 00:59:07;;;;;;;11.93;6.53;;;18.20;99.90;;;;;;3059561;19;20014;-74
2022/08/18 01:00:13;;;;;;;16.35;6.85;;;18.30;99.90;;;;;;3059666;19;20003;-75
2022/08/18 01:01:16;;;;;;;12.80;6.00;;;18.30;99.90;;;;;;3059480;19;20011;-74
2022/08/18 01:02:24;;;;;;;15.52;6.78;;;18.20;99.90;;;;;;3059528;19;20007;-74
2022/08/18 01:03:27;;;;;;;14.80;6.40;;;18.30;99.90;;;;;;3059452;19;20019;-74
2022/08/18 01:04:36;;;;;;;14.13;6.28;;;18.30;99.90;;;;;;3059530;19;20006;-75
2022/08/18 01:05:42;;;;;;;12.60;6.80;;;18.20;99.90;;;;;;3059723;19;20039;-75
2022/08/18 01:06:51;;;;;;;14.57;6.30;;;18.30;99.90;;;;;;3059298;19;20090;-75
2022/08/18 01:07:53;;;;;;;16.17;6.55;;;18.10;99.90;;;;;;3059336;19;20137;-75
2022/08/18 01:08:57;;;;;;;14.40;6.57;;;18.00;99.90;;;;;;3059412;19;20119;-74
2022/08/18 01:09:59;;;;;;;14.43;6.57;;;18.10;99.90;;;;;;3059473;19;20006;-75
2022/08/18 01:11:04;;;;;;;15.10;6.25;;;18.10;99.90;;;;;;3059057;19;20014;-75
2022/08/18 01:12:07;;;;;;;10.48;6.45;;;17.80;99.90;;;;;;3059532;19;20018;-75
2022/08/18 01:13:12;;;;;;;13.60;6.38;;;18.30;99.90;;;;;;3059549;19;20031;-74
2022/08/18 01:14:14;;;;;;;14.27;6.33;;;18.20;99.90;;;;;;2917361;19;2783204;-74
2022/08/18 01:15:21;;;;;;;13.68;6.18;;;18.20;99.90;;;;;;3060364;19;20032;-75
2022/08/18 01:22:01;;;;;;;13.77;5.25;;;18.00;99.90;;;;;;3060216;19;20357;-75
2022/08/18 01:23:12;;;;;;;13.20;5.13;;;18.00;99.90;;;;;;3060333;19;20028;-75
2022/08/18 01:24:16;;;;;;;12.52;5.90;;;17.90;99.90;;;;;;3060329;19;20010;-74
2022/08/18 01:26:39;;;;;;;11.88;5.35;;;18.20;99.90;;;;;;3060602;19;20006;-75
2022/08/18 01:27:40;;;;;;;11.80;5.72;;;18.00;99.90;;;;;;3059231;19;20070;-75
2022/08/18 01:28:45;;;;;;;;;;;17.80;99.90;;;;;;3060100;19;20018;-75
2022/08/18 01:29:49;;;;;;;13.00;5.32;;;17.90;99.90;;;;;;3060487;19;20296;-73
2022/08/18 01:30:57;;;;;;;12.80;5.35;;;17.80;99.90;;;;;;3060517;19;20024;-74
2022/08/18 01:31:58;;;;;;;8.48;5.03;;;18.00;99.90;;;;;;3060242;19;20010;-74
2022/08/18 01:33:02;;;;;;;12.48;5.60;;;18.00;99.90;;;;;;3060202;19;20382;-75
2022/08/18 01:34:05;;;;;;;10.57;5.30;;;18.10;99.90;;;;;;3060242;19;20003;-75
2022/08/18 01:35:11;;;;;;;11.85;5.30;;;18.00;99.90;;;;;;3060293;19;20072;-75
2022/08/18 01:36:16;;;;;;;11.30;5.35;;;18.10;99.90;;;;;;3060151;19;20021;-75
2022/08/18 01:37:25;;;;;;;10.25;5.03;;;18.00;99.90;;;;;;3060168;19;20010;-75
2022/08/18 01:38:30;;;;;;;11.90;5.15;;;18.00;99.90;;;;;;3060172;19;20491;-74
2022/08/18 01:39:37;;;;;;;11.00;5.40;;;18.20;99.90;;;;;;3060184;19;20010;-75
2022/08/18 01:40:38;;;;;;;12.55;5.63;;;17.90;99.90;;;;;;3060019;19;20011;-75
2022/08/18 01:41:43;;;;;;;7.50;5.00;;;18.10;99.90;;;;;;3060013;19;20013;-74
2022/08/18 01:42:45;;;;;;;10.15;5.35;;;18.10;99.90;;;;;;3060035;19;20051;-74
2022/08/18 01:43:49;;;;;;;14.07;6.05;;;18.20;99.90;;;;;;3060351;19;20007;-74
2022/08/18 01:44:51;;;;;;;12.95;5.93;;;18.10;99.90;;;;;;3059939;19;20018;-74
2022/08/18 01:45:59;;;;;;;13.10;5.82;;;18.00;99.90;;;;;;3059929;19;20015;-74
2022/08/18 01:47:01;;;;;;;11.27;5.78;;;18.30;99.90;;;;;;3059815;19;20011;-74
2022/08/18 01:48:05;;;;;;;12.65;5.35;;;18.30;99.90;;;;;;3060290;19;20006;-74
2022/08/18 01:49:08;;;;;;;13.27;6.00;;;18.40;99.90;;;;;;3059361;19;20011;-75
2022/08/18 01:50:12;;;;;;;12.02;5.78;;;18.10;99.90;;;;;;3060001;19;20006;-75
2022/08/18 01:51:16;;;;;;;10.13;5.97;;;18.20;99.90;;;;;;3059827;19;20018;-75
2022/08/18 01:52:22;;;;;;;12.10;5.97;;;18.10;99.90;;;;;;3059805;19;20010;-75
2022/08/18 01:53:24;;;;;;;13.63;6.30;;;18.30;99.90;;;;;;3060097;19;20003;-75
2022/08/18 01:54:30;;;;;;;11.77;6.28;;;18.10;99.90;;;;;;3059871;19;20018;-74
2022/08/18 01:55:32;;;;;;;13.38;6.18;;;18.30;99.90;;;;;;3059848;19;20066;-75
2022/08/18 01:56:35;;;;;;;;;;;18.30;99.90;;;;;;3060437;19;20018;-75
2022/08/18 01:57:41;;;;;;;11.90;6.15;;;18.40;99.90;;;;;;3060033;19;20264;-75
2022/08/18 01:58:46;;;;;;;15.45;6.20;;;18.20;99.90;;;;;;3059895;19;20358;-75
2022/08/18 01:59:47;;;;;;;12.73;6.15;;;18.30;99.90;;;;;;3060074;19;20569;-74
2022/08/18 02:00:51;;;;;;;12.02;6.38;;;18.20;99.90;;;;;;3060051;19;20027;-75
2022/08/18 02:01:55;;;;;;;15.05;6.47;;;18.40;99.90;;;;;;3060106;19;20017;-75
2022/08/18 02:02:59;;;;;;;14.35;5.95;;;18.20;99.90;;;;;;3059857;19;20002;-75
2022/08/18 02:04:00;;;;;;;12.55;6.50;;;18.40;99.90;;;;;;3059844;19;20408;-74
2022/08/18 02:05:09;;;;;;;13.18;6.32;;;18.40;99.90;;;;;;3059594;19;20015;-75
2022/08/18 02:06:14;;;;;;;16.45;6.03;;;18.30;99.90;;;;;;3059761;19;20013;-74
2022/08/18 02:07:17;;;;;;;12.48;6.32;;;18.30;99.90;;;;;;3059596;19;20011;-75
2022/08/18 02:08:19;;;;;;;15.25;5.90;;;18.30;99.90;;;;;;3059497;19;20011;-75
2022/08/18 02:09:23;;;;;;;12.65;6.68;;;18.20;99.90;;;;;;3059544;19;20010;-75
2022/08/18 02:10:27;;;;;;;17.10;6.65;;;18.30;99.90;;;;;;3059586;19;20018;-75
2022/08/18 02:11:31;;;;;;;13.88;6.18;;;18.40;99.90;;;;;;3059377;19;20018;-74
2022/08/18 02:12:32;;;;;;;15.52;7.07;;;18.30;99.90;;;;;;3059828;19;20015;-75
2022/08/18 02:13:37;;;;;;;16.45;6.30;;;18.30;99.90;;;;;;3059055;19;20018;-74
2022/08/18 02:14:39;;;;;;;15.40;6.10;;;18.00;99.90;;;;;;3059617;19;20009;-75
2022/08/18 02:15:43;;;;;;;14.10;6.72;;;18.20;99.90;;;;;;3059477;19;20073;-75
2022/08/18 02:16:44;;;;;;;11.60;6.28;;;18.40;99.90;;;;;;3058794;19;20010;-74
2022/08/18 02:17:48;;;;;;;12.32;6.47;;;18.20;99.90;;;;;;3058680;19;20715;-75
2022/08/18 02:18:50;;;;;;;10.95;6.35;;;18.30;99.90;;;;;;3059200;19;20015;-75
2022/08/18 02:19:53;;;;;;;15.43;6.43;;;18.30;99.90;;;;;;3059494;19;20027;-75
2022/08/18 02:20:55;;;;;;;15.05;6.88;;;18.10;99.90;;;;;;3059659;19;20019;-75
2022/08/18 02:21:59;;;;;;;;;;;18.00;99.90;;;;;;3060053;19;20229;-75
2022/08/18 02:23:01;;;;;;;14.40;5.97;;;18.30;99.90;;;;;;3059693;19;19915;-75
2022/08/18 02:24:06;;;;;;;13.50;7.30;;;18.10;99.90;;;;;;3059556;19;20010;-74
2022/08/18 02:25:09;;;;;;;14.60;6.75;;;18.10;99.90;;;;;;3059493;19;20003;-75
2022/08/18 02:26:17;;;;;;;14.05;6.50;;;18.30;99.90;;;;;;3059627;19;20019;-75
2022/08/18 02:27:19;;;;;;;11.70;6.18;;;18.30;99.90;;;;;;3058790;19;19999;-75
2022/08/18 02:28:22;;;;;;;16.65;6.18;;;18.40;99.90;;;;;;3059013;19;20035;-75
2022/08/18 02:29:24;;;;;;;11.95;6.03;;;18.40;99.90;;;;;;3059712;19;20373;-75
2022/08/18 02:30:28;;;;;;;19.77;6.72;;;18.20;99.90;;;;;;3059279;19;20380;-75
2022/08/18 02:31:30;;;;;;;12.35;5.90;;;18.40;99.90;;;;;;3059595;19;20002;-75
2022/08/18 02:32:34;;;;;;;13.50;5.95;;;18.20;99.90;;;;;;3059220;19;20480;-75
2022/08/18 02:33:35;;;;;;;17.15;6.88;;;18.50;99.90;;;;;;3059396;19;20333;-75
2022/08/18 02:34:40;;;;;;;13.55;5.93;;;18.30;99.90;;;;;;3059400;19;20049;-75
2022/08/18 02:35:42;;;;;;;15.90;6.70;;;18.40;99.90;;;;;;3059460;19;20007;-75
2022/08/18 02:36:47;;;;;;;13.07;6.28;;;18.50;99.90;;;;;;3058496;19;20061;-74
2022/08/18 02:37:48;;;;;;;20.55;6.35;;;18.50;99.90;;;;;;3058553;19;20005;-74
2022/08/18 02:38:52;;;;;;;14.77;6.78;;;18.50;99.90;;;;;;3059217;19;20092;-74
2022/08/18 02:39:53;;;;;;;13.43;6.47;;;18.40;99.90;;;;;;3059340;19;20464;-75
2022/08/18 02:40:58;;;;;;;14.80;6.38;;;18.50;99.90;;;;;;3058895;19;20535;-74
2022/08/18 02:42:03;;;;;;;15.15;7.05;;;18.50;99.90;;;;;;3059145;19;20483;-75
2022/08/18 02:43:09;;;;;;;17.00;6.40;;;18.40;99.90;;;;;;3059098;19;20067;-75
2022/08/18 02:44:10;;;;;;;18.23;7.05;;;18.20;99.90;;;;;;3059227;19;20039;-75
2022/08/18 02:45:15;;;;;;;16.50;6.82;;;18.50;99.90;;;;;;3058999;19;20441;-75
2022/08/18 02:46:18;;;;;;;13.45;6.50;;;18.30;99.90;;;;;;3059446;19;20472;-75
2022/08/18 02:47:22;;;;;;;16.17;6.25;;;18.50;99.90;;;;;;3058147;19;20417;-75
2022/08/18 02:48:23;;;;;;;18.98;6.72;;;18.60;99.90;;;;;;3058427;19;20006;-74
2022/08/18 02:49:27;;;;;;;17.30;6.07;;;18.30;99.90;;;;;;3057745;19;20392;-74
2022/08/18 02:50:29;;;;;;;17.52;6.60;;;18.40;99.90;;;;;;3059095;19;20023;-74
2022/08/18 02:51:33;;;;;;;16.92;7.28;;;18.40;99.90;;;;;;3059066;19;20006;-75
2022/08/18 02:52:35;;;;;;;17.52;6.57;;;18.50;99.90;;;;;;3059297;19;20016;-75
2022/08/18 02:53:39;;;;;;;20.83;6.47;;;18.40;99.90;;;;;;3058998;19;20017;-74
2022/08/18 02:54:43;;;;;;;17.25;7.07;;;18.40;99.90;;;;;;3059428;19;20015;-75
2022/08/18 02:55:45;;;;;;;20.13;6.75;;;18.50;99.90;;;;;;3059078;19;20006;-75
2022/08/18 02:56:50;;;;;;;14.82;7.07;;;18.60;99.90;;;;;;3058990;19;20428;-74
2022/08/18 02:57:53;;;;;;;17.85;6.88;;;18.30;99.90;;;;;;3058929;19;20066;-75
2022/08/18 02:59:00;;;;;;;19.65;7.18;;;18.30;99.90;;;;;;3058994;19;20010;-75
2022/08/18 03:00:03;;;;;;;14.98;7.10;;;18.40;99.90;;;;;;3058945;19;20033;-74
2022/08/18 03:01:07;;;;;;;19.67;7.30;;;18.50;99.90;;;;;;3058899;19;20013;-75
2022/08/18 03:02:15;;;;;;;15.07;6.50;;;18.60;99.90;;;;;;3058966;19;20509;-75
2022/08/18 03:03:17;;;;;;;21.70;6.68;;;18.60;99.90;;;;;;3058944;19;20027;-74
2022/08/18 03:04:24;;;;;;;16.80;6.57;;;18.50;99.90;;;;;;3058960;19;20011;-75
2022/08/18 03:05:27;;;;;;;18.40;7.10;;;18.20;99.90;;;;;;3058888;19;20353;-75
2022/08/18 03:06:32;;;;;;;16.50;6.70;;;18.40;99.90;;;;;;3059152;19;20017;-76
2022/08/18 03:07:33;;;;;;;16.98;7.53;;;18.40;99.90;;;;;;3058666;19;20033;-75
2022/08/18 03:08:37;;;;;;;26.15;7.40;;;18.50;99.90;;;;;;3059105;19;20031;-75
2022/08/18 03:09:39;;;;;;;16.02;7.15;;;18.50;99.90;;;;;;3058941;19;20058;-75
2022/08/18 03:10:44;;;;;;;17.95;6.57;;;18.50;99.90;;;;;;3058771;19;20472;-75
2022/08/18 03:11:47;;;;;;;16.15;7.07;;;18.40;99.90;;;;;;3058810;19;20013;-75
2022/08/18 03:12:52;;;;;;;25.67;7.60;;;18.40;99.90;;;;;;3058905;19;20036;-75
2022/08/18 03:13:56;;;;;;;18.13;7.10;;;18.50;99.90;;;;;;3058319;19;20049;-73
2022/08/18 03:15:00;;;;;;;16.17;7.50;;;18.30;99.90;;;;;;3058981;19;20007;-75
2022/08/18 03:16:02;;;;;;;13.60;7.38;;;18.50;99.90;;;;;;3058830;19;20479;-75
2022/08/18 03:17:07;;;;;;;19.42;8.20;;;18.40;99.90;;;;;;3058687;19;20011;-75
2022/08/18 03:18:09;;;;;;;17.58;7.50;;;18.50;99.90;;;;;;3058895;19;20353;-74
2022/08/18 03:19:15;;;;;;;;;;;18.50;99.90;;;;;;3059265;19;20018;-75
2022/08/18 03:20:16;;;;;;;17.35;7.00;;;18.40;99.90;;;;;;3058827;19;19943;-75
2022/08/18 03:21:22;;;;;;;18.52;7.68;;;18.40;99.90;;;;;;3059162;19;20488;-75
2022/08/18 03:22:24;;;;;;;23.58;7.97;;;18.20;99.90;;;;;;3058705;19;20018;-75
2022/08/18 03:23:28;;;;;;;24.88;8.27;;;18.50;99.90;;;;;;3058919;19;20078;-75
2022/08/18 03:24:31;;;;;;;16.90;8.05;;;18.20;99.90;;;;;;3058829;19;20709;-74
2022/08/18 03:25:35;;;;;;;23.48;8.15;;;18.40;99.90;;;;;;3058991;19;20011;-76
2022/08/18 03:26:40;;;;;;;18.40;8.88;;;18.40;99.90;;;;;;3058714;19;20017;-76
2022/08/18 03:27:44;;;;;;;20.73;8.55;;;18.30;99.90;;;;;;3057891;19;20032;-75
2022/08/18 03:28:48;;;;;;;18.55;7.97;;;18.40;99.90;;;;;;3058322;19;20021;-75
2022/08/18 03:29:54;;;;;;;22.67;8.10;;;18.40;99.90;;;;;;3060378;19;20033;-75
2022/08/18 03:30:56;;;;;;;20.65;8.00;;;18.50;99.90;;;;;;3058512;19;20010;-75
2022/08/18 03:32:01;;;;;;;23.70;8.02;;;18.30;99.90;;;;;;3058560;19;20077;-75
2022/08/18 03:33:02;;;;;;;20.20;8.25;;;18.30;99.90;;;;;;3058675;19;20035;-75
2022/08/18 03:34:08;;;;;;;22.02;8.50;;;18.30;99.90;;;;;;3058681;19;20010;-76
2022/08/18 03:35:09;;;;;;;18.50;8.57;;;18.40;99.90;;;;;;3058484;19;20007;-76
2022/08/18 03:36:17;;;;;;;20.35;8.15;;;18.50;99.90;;;;;;3058615;19;20072;-75
2022/08/18 03:37:18;;;;;;;20.08;8.35;;;18.40;99.90;;;;;;3058567;19;20007;-75
2022/08/18 03:38:22;;;;;;;20.42;7.82;;;18.20;99.90;;;;;;3058411;19;20023;-76
2022/08/18 03:39:23;;;;;;;22.33;8.40;;;18.30;99.90;;;;;;3058376;19;20010;-76
2022/08/18 03:40:27;;;;;;;22.00;9.10;;;18.40;99.90;;;;;;3058403;19;20015;-76
2022/08/18 03:41:30;;;;;;;20.88;8.93;;;18.30;99.90;;;;;;3058346;19;20014;-75
2022/08/18 03:42:34;;;;;;;19.73;8.70;;;18.30;99.90;;;;;;3058532;19;19994;-75
2022/08/18 03:43:36;;;;;;;24.95;8.88;;;18.30;99.90;;;;;;3058450;19;20097;-75
2022/08/18 03:44:39;;;;;;;16.13;7.97;;;18.30;99.90;;;;;;3058438;19;20005;-75
2022/08/18 03:45:43;;;;;;;22.48;8.35;;;18.30;99.90;;;;;;3058475;19;20499;-75
2022/08/18 03:46:47;;;;;;;18.85;8.45;;;18.30;99.90;;;;;;3058758;19;20005;-76
2022/08/18 03:47:51;;;;;;;21.75;8.85;;;18.40;99.90;;;;;;3058387;19;20010;-76
2022/08/18 03:48:55;;;;;;;24.33;9.48;;;18.30;99.90;;;;;;3057708;19;20014;-75
2022/08/18 03:49:56;;;;;;;18.80;8.45;;;18.60;99.90;;;;;;3058518;19;20018;-75
2022/08/18 03:51:05;;;;;;;19.63;9.00;;;18.40;99.90;;;;;;3058397;19;20018;-76
2022/08/18 03:52:08;;;;;;;22.58;9.10;;;18.30;99.90;;;;;;3058292;19;20006;-76
2022/08/18 03:53:12;;;;;;;20.50;9.13;;;18.20;99.90;;;;;;3058489;19;20021;-76
2022/08/18 03:54:15;;;;;;;19.52;9.45;;;18.40;99.90;;;;;;3058461;19;20534;-76
2022/08/18 03:55:20;;;;;;;21.95;9.90;;;18.50;99.90;;;;;;3058243;19;20013;-75
2022/08/18 03:56:24;;;;;;;20.15;8.75;;;18.30;99.90;;;;;;3058550;19;20094;-76
2022/08/18 03:57:32;;;;;;;18.98;9.13;;;18.40;99.90;;;;;;3058171;19;19998;-75
2022/08/18 03:58:33;;;;;;;18.77;8.45;;;18.30;99.90;;;;;;3058234;19;20035;-76
2022/08/18 03:59:40;;;;;;;20.65;8.80;;;18.30;99.90;;;;;;3058334;19;20492;-76
2022/08/18 04:00:44;;;;;;;23.90;9.50;;;18.40;99.90;;;;;;3058278;19;20540;-76
2022/08/18 04:01:49;;;;;;;16.35;9.02;;;18.10;99.90;;;;;;3058274;19;20469;-75
2022/08/18 04:02:50;;;;;;;18.00;9.13;;;18.80;99.90;;;;;;3058239;19;20010;-76
2022/08/18 04:03:57;;;;;;;18.13;8.88;;;18.20;99.90;;;;;;3058094;19;20014;-75
2022/08/18 04:04:58;;;;;;;16.20;8.23;;;18.20;99.90;;;;;;3058323;19;20424;-76
2022/08/18 04:06:02;;;;;;;21.83;8.52;;;18.30;99.90;;;;;;3058028;19;20484;-75
2022/08/18 04:07:06;;;;;;;20.42;8.45;;;18.40;99.90;;;;;;3058251;19;20566;-76
2022/08/18 04:08:12;;;;;;;24.30;9.52;;;18.30;99.90;;;;;;3058009;19;20015;-77
2022/08/18 04:09:14;;;;;;;19.42;9.05;;;18.40;99.90;;;;;;3058184;19;20002;-76
2022/08/18 04:10:18;;;;;;;;;;;18.30;99.90;;;;;;3058772;19;20017;-76
2022/08/18 04:11:20;;;;;;;18.83;9.20;;;18.20;99.90;;;;;;3058197;19;19926;-76
2022/08/18 04:12:24;;;;;;;16.70;8.13;;;18.40;99.90;;;;;;3058095;19;20003;-75
2022/08/18 04:13:25;;;;;;;12.82;7.78;;;18.50;99.90;;;;;;3057713;19;20379;-75
2022/08/18 04:14:30;;;;;;;19.98;8.90;;;18.30;99.90;;;;;;3057988;19;20015;-76
2022/08/18 04:15:35;;;;;;;14.57;8.10;;;18.20;99.90;;;;;;3058252;19;20010;-75
2022/08/18 04:16:43;;;;;;;20.27;8.07;;;19.70;99.90;;;;;;3057820;19;20006;-74
2022/08/18 04:17:45;;;;;;;15.48;8.30;;;18.40;99.90;;;;;;3058128;19;20026;-76
2022/08/18 04:18:48;;;;;;;15.98;8.00;;;18.20;99.90;;;;;;3057403;19;20006;-74
2022/08/18 04:19:50;;;;;;;17.05;8.18;;;17.50;99.90;;;;;;3058053;19;20002;-75
2022/08/18 04:20:54;;;;;;;15.40;8.52;;;18.20;99.90;;;;;;3057797;19;20018;-75
2022/08/18 04:21:57;;;;;;;16.10;8.77;;;18.40;99.90;;;;;;3057387;19;20014;-75
2022/08/18 04:23:01;;;;;;;15.27;7.95;;;18.40;99.90;;;;;;3057059;19;20011;-74
2022/08/18 04:24:04;;;;;;;16.17;8.93;;;18.30;99.90;;;;;;3058148;19;20003;-74
2022/08/18 04:25:10;;;;;;;16.98;8.38;;;18.50;99.90;;;;;;3057945;19;20356;-74
2022/08/18 04:26:12;;;;;;;17.48;7.80;;;18.40;99.90;;;;;;3057893;19;20011;-74
2022/08/18 04:27:18;;;;;;;12.82;7.97;;;18.50;99.90;;;;;;3057254;19;20380;-74
2022/08/18 04:28:19;;;;;;;10.70;6.70;;;18.40;99.90;;;;;;3058042;19;19995;-74
2022/08/18 04:29:24;;;;;;;11.77;6.28;;;18.30;99.90;;;;;;3058693;19;20515;-74
2022/08/18 04:30:28;;;;;;;13.73;7.07;;;18.30;99.90;;;;;;3058036;19;20003;-74
2022/08/18 04:31:30;;;;;;;13.25;7.65;;;18.30;99.90;;;;;;3057817;19;20007;-74
2022/08/18 04:32:38;;;;;;;13.00;7.07;;;18.50;99.90;;;;;;3058120;19;20006;-74
2022/08/18 04:33:40;;;;;;;13.02;7.30;;;18.50;99.90;;;;;;3057893;19;20359;-75
2022/08/18 04:34:44;;;;;;;14.85;7.28;;;18.50;99.90;;;;;;3057942;19;20010;-74
2022/08/18 04:35:46;;;;;;;17.33;7.45;;;18.40;99.90;;;;;;3057705;19;20369;-74
2022/08/18 04:36:52;;;;;;;18.05;7.88;;;18.50;99.90;;;;;;3057892;19;20369;-74
2022/08/18 04:37:54;;;;;;;11.80;7.22;;;18.40;99.90;;;;;;3057764;19;20014;-74
2022/08/18 04:38:58;;;;;;;16.98;8.48;;;18.30;99.90;;;;;;3057780;19;20014;-73
2022/08/18 04:39:59;;;;;;;15.57;7.65;;;18.40;99.90;;;;;;3057638;19;20007;-74
2022/08/18 04:41:03;;;;;;;19.45;8.35;;;18.20;99.90;;;;;;3057900;19;20337;-74
2022/08/18 04:42:04;;;;;;;16.23;7.32;;;18.40;99.90;;;;;;3057850;19;20010;-74
2022/08/18 04:43:13;;;;;;;17.60;7.22;;;18.50;99.90;;;;;;3057762;19;20039;-74
2022/08/18 04:44:16;;;;;;;18.85;7.43;;;18.30;99.90;;;;;;3057687;19;20488;-74
2022/08/18 04:45:20;;;;;;;17.42;7.90;;;18.30;99.90;;;;;;3057673;19;20011;-74
2022/08/18 04:46:21;;;;;;;14.88;6.88;;;18.40;99.90;;;;;;3057626;19;20550;-74
2022/08/18 04:47:25;;;;;;;14.68;7.00;;;18.40;99.90;;;;;;3057865;19;20039;-74
2022/08/18 04:48:32;;;;;;;16.95;7.68;;;18.30;99.90;;;;;;3057987;19;20014;-75
2022/08/18 04:49:37;;;;;;;15.65;7.38;;;18.40;99.90;;;;;;3057271;19;20003;-74
2022/08/18 04:50:39;;;;;;;19.23;8.18;;;18.20;99.90;;;;;;3057897;19;20002;-75
2022/08/18 04:51:44;;;;;;;;;;;18.40;99.90;;;;;;3058278;19;20046;-74
2022/08/18 04:54:01;;;;;;;20.92;7.18;;;18.30;99.90;;;;;;3057699;19;20589;-75
2022/08/18 04:55:04;;;;;;;17.63;6.68;;;18.40;99.90;;;;;;3057787;19;20027;-75
2022/08/18 04:56:08;;;;;;;18.35;7.30;;;18.40;99.90;;;;;;3057452;19;20032;-74
2022/08/18 04:57:12;;;;;;;16.15;7.03;;;18.30;99.90;;;;;;3057711;19;20003;-74
2022/08/18 04:58:17;;;;;;;17.55;7.40;;;18.50;99.90;;;;;;3057365;19;20006;-74
2022/08/18 04:59:19;;;;;;;16.17;7.07;;;18.30;99.90;;;;;;3057720;19;20456;-74
2022/08/18 05:00:23;;;;;;;15.73;7.15;;;18.50;99.90;;;;;;3058194;19;20018;-74
2022/08/18 05:01:27;;;;;;;14.23;7.10;;;18.20;99.90;;;;;;3060700;19;20007;-75
2022/08/18 05:02:31;;;;;;;19.70;7.10;;;18.40;99.90;;;;;;3060580;19;20010;-75
2022/08/18 05:03:37;;;;;;;21.98;7.38;;;18.40;99.90;;;;;;3060608;19;20015;-74
2022/08/18 05:04:45;;;;;;;15.98;6.40;;;18.30;99.90;;;;;;3060456;19;20015;-74
2022/08/18 05:05:47;;;;;;;14.35;6.78;;;18.40;99.90;;;;;;3060744;19;20002;-75
2022/08/18 05:06:52;;;;;;;15.68;6.60;;;18.30;99.90;;;;;;3060561;19;20058;-74
2022/08/18 05:07:53;;;;;;;17.30;6.55;;;18.40;99.90;;;;;;3060691;19;20011;-74
2022/08/18 05:08:59;;;;;;;14.57;6.28;;;18.20;99.90;;;;;;3060459;19;20356;-74
2022/08/18 05:10:01;;;;;;;17.25;7.10;;;18.30;99.90;;;;;;3059884;19;20439;-77
2022/08/18 05:11:05;;;;;;;18.08;6.70;;;18.50;99.90;;;;;;3060137;19;20014;-75
2022/08/18 05:12:08;;;;;;;14.82;7.07;;;18.20;99.90;;;;;;3060503;19;20087;-76
2022/08/18 05:13:15;;;;;;;15.50;6.70;;;18.40;99.90;;;;;;3060471;19;20046;-75
2022/08/18 05:14:16;;;;;;;13.52;6.15;;;18.30;99.90;;;;;;3059185;19;20491;-74
2022/08/18 05:15:21;;;;;;;17.80;6.28;;;18.70;99.90;;;;;;3060234;19;20495;-75
2022/08/18 05:16:23;;;;;;;20.38;7.13;;;18.20;99.90;;;;;;3060558;19;20021;-73
2022/08/18 05:17:28;;;;;;;14.40;6.20;;;18.50;99.90;;;;;;3060410;19;20010;-75
2022/08/18 05:18:29;;;;;;;16.13;6.63;;;18.30;99.90;;;;;;3060505;19;20023;-75
2022/08/18 05:19:36;;;;;;;17.10;7.03;;;18.30;99.90;;;;;;3059890;19;20010;-75
2022/08/18 05:20:42;;;;;;;17.98;6.70;;;18.40;99.90;;;;;;3060372;19;20027;-74
2022/08/18 05:21:46;;;;;;;13.95;6.25;;;18.50;99.90;;;;;;3060357;19;20376;-73
2022/08/18 05:22:47;;;;;;;12.57;5.82;;;18.40;99.90;;;;;;3060115;19;20484;-75
2022/08/18 05:23:53;;;;;;;14.77;6.28;;;18.60;99.90;;;;;;3060424;19;20024;-75
2022/08/18 05:24:54;;;;;;;19.25;7.18;;;18.50;99.90;;;;;;3060206;19;20023;-75
2022/08/18 05:26:02;;;;;;;17.17;6.68;;;18.50;99.90;;;;;;3060401;19;20002;-76
2022/08/18 05:27:06;;;;;;;18.00;6.88;;;18.40;99.90;;;;;;3059564;19;20040;-75
2022/08/18 05:28:10;;;;;;;14.15;6.45;;;18.30;99.90;;;;;;3060228;19;20002;-73
2022/08/18 05:29:11;;;;;;;15.45;6.07;;;18.30;99.90;;;;;;3061820;19;20010;-75
2022/08/18 05:30:16;;;;;;;;;;;18.40;99.90;;;;;;3060188;19;20018;-76
2022/08/18 05:31:21;;;;;;;13.25;6.40;;;18.60;99.90;;;;;;3059995;19;20400;-75
2022/08/18 05:32:30;;;;;;;17.00;6.22;;;18.70;99.90;;;;;;3060257;19;20011;-74
2022/08/18 05:33:31;;;;;;;11.80;6.13;;;18.40;99.90;;;;;;3060155;19;20007;-76
2022/08/18 05:34:38;;;;;;;16.83;6.57;;;18.40;99.90;;;;;;3060089;19;20424;-74
2022/08/18 05:35:43;;;;;;;15.63;6.18;;;18.40;99.90;;;;;;3060202;19;20025;-77
2022/08/18 05:36:59;;;;;;;12.02;6.45;;;18.50;99.90;;;;;;3059194;19;20017;-75